Altdorf, Wisconsin
Current Conditions -  °F | °C
As of 10:25 AM on Sunday 23 Nov 2014 (Local Time) from KISW Reporting Station
Haze Haze  
Wind Chill: 45°   Ceiling: 200
Heat Index: 49°   Visibility: 2mi
Dew Point: 47°   Wind: 8mph
Humidity: 93%   Direction: 180°S
Pressure: 29.57"   Gusts: NA
Location:  44.4583°N, 90.0009°W
Report Text: KISW 231625Z AUTO 18007KT 2SM BR OVC002 09/08 A2957 RMK AO2 T00940083 $
Loading
Personal Weather Stations






























Interactive Weather Map New forecast layout! Learn more

10-Day Weather Forecast

Advertisements
Track Severe Weather on mobile